Pagrindinis puslapis
METAR-TAF:

METAR-TAF

Oro uostai :

Vitebskas, Baltarusija

platuma: 55-10N, ilguma: 030-13E, Aukštis: 176 m

Dabartinis oras

Ataskaita buvo paskelbta 41 minutes, ne 22:00 UTC
Ramus vėjas
Temperatūra 20°C
Drėgmė 73%
Slėgis 1019 hPa
Matomumas: 7000 m

METAR: UMII 022200Z 00000MPS 7000 NSC 20/15 Q1019 TEMPO 2000 BR BKN007

Laikas: 01:41 (22:41 UTC)

Prognozė

Ataskaita buvo paskelbta 2 valandos ir 34 minutes, ne 20:07 UTC
Prognozė galioja nuo 02 metu 21 UTC su 03 metu 06 UTC
Vėjas 6 kt iš Pietų/Pietvakarių
Matomumas 10 km arba daugiau
Su prošvaistėmis ne aukštis 2000 ft
Laikinai
nuo 02 metu 21 UTC su 03 metu 06 UTC
Vėjas 4 kt nuo kintamojo kryptimis
Matomumas: 2000 m
Su prošvaistėmis ne aukštis 700 ft
rūkana

TAF: UMII 022007Z 0221/0306 21003MPS 9999 BKN020 TEMPO 0221/0306 VRB02MPS 2000 BR BKN007

Orai ataskaitas ir orų prognozės (METAR, TAF).

turimą stotys yra geltonos ir raudonos taškus žemėlapyje.

Perkelti pele per norėdami pamatyti stoties vardą.

Tada spustelėkite, norėdami matyti oro stebėjimo ir prognozės.

Norėdami pakeisti žemėlapį: spustelėkite ant žalios mygtukų su juodo kryžiaus žemyn,; žalią mygtuką su brūkšneliu, jei norite nutolinti; arba žalių rodyklių gretimoms žemėlapius.


METAR-TAF: